Latest Weather Observations for West Wyalong

IDN60801

Issued at 10:05 am EST Wednesday 24 September 2014 (issued every 30 minutes, with the page automatically refreshed every 10 minutes)

About weather observations | Map of weather stations | Latest weather observations for NSW | Other Formats
Station Details ID: 050017 Name: WEST WYALONG AIRPORT AWS Lat: -33.94 Lon: 147.20 Height: 257.0 m
Data from the previous 72 hours. | See also: Recent months for locations in New South Wales
Date/Time
EST
Temp
°C
App
Temp
°C
Dew
Point
Rel
Hum
%
Delta-T
°C
Wind Press
QNH
hPa
Press
MSL
hPa
Rain
since 9 am
mm
Dir
 
Spd
km/h
Gust
km/h
Spd
kts
Gust
kts
24/10:00am 19.8 16.7 8.8 49 5.8 NE 15 22 8 12 1020.0 1019.9 0.0
24/09:30am 17.1 13.2 7.2 52 5.0 NNE 17 24 9 13 1020.7 1020.7 0.0
24/09:00am 16.5 13.0 7.4 55 4.6 NNE 15 24 8 13 1021.2 1021.1 0.0
24/08:30am 15.1 11.4 6.4 56 4.3 NE 15 20 8 11 1021.3 1021.2 0.0
24/08:00am 14.0 11.0 6.1 59 3.8 ENE 11 13 6 7 1021.5 1021.4 0.0
24/07:30am 11.9 10.4 6.8 71 2.5 NE 4 9 2 5 1021.5 1021.4 0.0
24/07:00am 11.0 10.2 6.7 75 2.1 CALM 0 0 0 0 1021.2 1021.1 0.0
24/06:30am 10.6 9.7 6.0 73 2.2 CALM 0 0 0 0 1020.8 1020.8 0.0
24/06:00am 10.3 9.2 5.3 71 2.3 CALM 0 0 0 0 1020.7 1020.7 0.0
24/05:30am 10.0 9.1 6.0 76 1.9 CALM 0 0 0 0 1020.4 1020.3 0.0
24/05:00am 10.0 8.9 5.2 72 2.2 CALM 0 0 0 0 1020.2 1020.1 0.0
24/04:30am 10.1 9.0 5.1 71 2.3 CALM 0 0 0 0 1020.1 1020.0 0.0
24/04:00am 10.0 8.8 4.8 70 2.4 CALM 0 0 0 0 1020.2 1020.1 0.0
24/03:30am 9.8 8.3 5.0 72 2.2 SE 2 6 1 3 1020.4 1020.3 0.0
24/03:00am 9.5 7.3 5.3 75 1.9 SE 6 7 3 4 1020.6 1020.5 0.0
24/02:30am 8.6 7.4 4.4 75 1.9 CALM 0 0 0 0 1020.9 1020.9 0.0
24/02:00am 7.9 6.5 3.4 73 1.9 CALM 0 0 0 0 1021.4 1021.3 0.0
24/01:30am 8.1 6.7 3.6 73 2.0 WSW 0 0 0 0 1021.7 1021.6 0.0
24/01:00am 8.2 6.8 3.7 73 2.0 CALM 0 0 0 0 1022.1 1022.0 0.0
24/12:30am 8.5 7.1 3.4 70 2.2 CALM 0 0 0 0 1022.2 1022.1 0.0
24/12:00am 8.4 7.0 3.7 72 2.0 WSW 0 0 0 0 1022.4 1022.3 0.0
 
Date/Time
EST
Temp
°C
App
Temp
°C
Dew
Point
Rel
Hum
%
Delta-T
°C
Wind Press
QNH
hPa
Press
MSL
hPa
Rain
since 9 am
mm
Dir
 
Spd
km/h
Gust
km/h
Spd
kts
Gust
kts
23/11:30pm 9.1 7.6 3.1 66 2.6 CALM 0 0 0 0 1022.7 1022.6 0.0
23/11:00pm 9.8 8.2 2.6 61 3.1 CALM 0 0 0 0 1022.5 1022.4 0.0
23/10:30pm 10.6 9.1 3.2 60 3.3 CALM 0 0 0 0 1022.6 1022.5 0.0
23/10:00pm 11.0 9.6 3.8 61 3.2 CALM 0 0 0 0 1022.5 1022.4 0.0
23/09:30pm 13.4 10.6 2.9 49 4.7 ENE 7 11 4 6 1022.6 1022.5 0.0
23/09:00pm 12.3 9.1 3.0 53 4.1 ESE 9 11 5 6 1022.8 1022.7 0.0
23/08:30pm 15.2 11.9 2.7 43 5.7 ENE 9 13 5 7 1023.1 1023.0 0.0
23/08:00pm 16.0 12.8 2.8 41 6.0 ENE 9 13 5 7 1023.4 1023.3 0.0
23/07:30pm 16.7 13.5 3.0 40 6.3 ENE 9 11 5 6 1023.4 1023.3 0.0
23/07:00pm 17.2 14.0 2.8 38 6.6 ENE 9 13 5 7 1023.3 1023.2 0.0
23/06:30pm 17.8 14.5 2.5 36 7.1 E 9 11 5 6 1023.2 1023.1 0.0
23/06:00pm 19.9 16.3 2.7 32 8.1 ENE 11 15 6 8 1023.1 1023.0 0.0
23/05:30pm 22.3 18.8 3.4 29 9.2 NE 11 17 6 9 1022.9 1022.8 0.0
23/05:00pm 23.1 19.1 2.6 26 9.8 NE 13 20 7 11 1022.9 1022.8 0.0
23/04:30pm 23.7 19.2 2.0 24 10.4 ENE 15 20 8 11 1023.0 1022.9 0.0
23/04:00pm 24.2 19.3 1.8 23 10.7 NE 17 24 9 13 1023.2 1023.1 0.0
23/03:30pm 24.4 21.0 1.9 23 10.8 NNW 9 13 5 7 1023.3 1023.2 0.0
23/03:00pm 24.0 18.9 1.0 22 10.8 N 17 20 9 11 1023.5 1023.4 0.0
23/02:30pm 24.5 19.3 3.8 26 10.3 NNW 20 26 11 14 1023.7 1023.6 0.0
23/02:00pm 24.0 19.8 3.9 27 10.0 ENE 15 20 8 11 1024.2 1024.2 0.0
23/01:30pm 24.0 19.9 4.4 28 9.8 NE 15 20 8 11 1024.6 1024.6 0.0
23/01:00pm 23.7 20.9 5.1 30 9.4 N 9 24 5 13 1025.2 1025.1 0.0
23/12:30pm 23.1 19.0 4.6 30 9.3 NE 15 22 8 12 1025.7 1025.6 0.0
23/12:00pm 22.5 18.4 4.5 31 8.9 NNE 15 26 8 14 1026.3 1026.2 0.0
23/11:30am 22.0 18.1 5.4 34 8.4 NE 15 22 8 12 1026.8 1026.7 0.0
23/11:00am 21.3 16.9 4.8 34 8.1 NE 17 22 9 12 1027.5 1027.5 0.0
23/10:30am 20.8 17.0 5.6 37 7.6 NE 15 22 8 12 1028.0 1028.0 0.0
23/10:00am 19.8 16.5 6.5 42 6.7 NE 13 19 7 10 1028.4 1028.4 0.0
23/09:30am 18.3 15.3 6.2 45 6.1 NE 11 17 6 9 1028.7 1028.7 0.0
23/09:00am 17.0 14.0 6.2 49 5.3 NE 11 13 6 7 1029.0 1029.0 0.0
23/08:30am 15.2 12.9 5.7 53 4.6 NE 7 13 4 7 1029.4 1029.3 0.0
23/08:00am 12.8 10.9 6.8 67 2.9 E 6 9 3 5 1029.1 1029.1 0.0
23/07:30am 10.5 8.4 6.5 76 1.9 ESE 7 11 4 6 1028.8 1028.8 0.0
23/07:00am 7.6 6.2 5.7 88 0.9 NW 2 6 1 3 1028.9 1028.9 0.0
23/06:30am 4.5 2.8 3.8 95 0.3 SSW 2 6 1 3 1028.6 1028.6 0.0
23/06:00am 3.4 0.6 1.8 89 0.6 SW 6 7 3 4 1028.3 1028.3 0.0
23/05:30am 3.9 2.3 2.4 90 0.6 CALM 0 0 0 0 1028.3 1028.3 0.0
23/05:00am 4.8 3.4 3.8 93 0.4 CALM 0 6 0 3 1027.9 1027.9 0.0
23/04:30am 3.8 1.7 2.0 88 0.7 S 2 7 1 4 1027.8 1027.8 0.0
23/04:00am 4.2 2.6 2.2 87 0.8 CALM 0 0 0 0 1027.8 1027.8 0.0
23/03:30am 3.7 2.0 1.6 86 0.8 CALM 0 0 0 0 1027.8 1027.8 0.0
23/03:00am 4.8 3.3 2.8 87 0.8 CALM 0 0 0 0 1027.5 1027.5 0.0
23/02:30am 5.0 3.4 2.5 84 1.0 CALM 0 0 0 0 1027.7 1027.7 0.0
23/02:00am 5.5 4.0 3.2 85 1.0 CALM 0 0 0 0 1027.9 1027.9 0.0
23/01:30am 5.6 4.1 2.9 83 1.1 CALM 0 0 0 0 1028.1 1028.1 0.0
23/01:00am 5.8 4.4 3.3 84 1.1 CALM 0 0 0 0 1028.2 1028.2 0.0
23/12:30am 5.9 3.3 3.1 82 1.2 SW 6 6 3 3 1028.2 1028.2 0.0
23/12:00am 6.6 4.0 3.4 80 1.4 WSW 6 6 3 3 1028.2 1028.2 0.0
 
Date/Time
EST
Temp
°C
App
Temp
°C
Dew
Point
Rel
Hum
%
Delta-T
°C
Wind Press
QNH
hPa
Press
MSL
hPa
Rain
since 9 am
mm
Dir
 
Spd
km/h
Gust
km/h
Spd
kts
Gust
kts
22/11:30pm 6.7 3.9 3.1 78 1.5 WSW 7 7 4 4 1028.3 1028.3 0.0
22/11:00pm 7.1 4.9 3.2 76 1.7 SW 4 9 2 5 1028.4 1028.4 0.0
22/10:30pm 8.0 6.6 3.7 74 1.9 CALM 0 0 0 0 1028.4 1028.4 0.0
22/10:00pm 8.6 7.2 3.4 70 2.2 CALM 0 0 0 0 1028.4 1028.4 0.0
22/09:30pm 9.5 8.1 3.7 67 2.6 CALM 0 0 0 0 1028.6 1028.6 0.0
22/09:00pm 11.2 9.9 4.0 61 3.2 CALM 0 0 0 0 1028.5 1028.5 0.0
22/08:30pm 11.1 8.9 3.4 59 3.4 SE 4 7 2 4 1028.3 1028.3 0.0
22/08:00pm 12.3 10.1 3.5 55 3.9 ESE 4 7 2 4 1028.1 1028.1 0.0
22/07:30pm 12.7 11.3 3.6 54 4.1 CALM 0 4 0 2 1027.8 1027.8 0.0
22/07:00pm 14.4 11.7 2.9 46 5.2 NE 6 7 3 4 1027.6 1027.6 0.0
22/06:30pm 16.5 13.6 2.5 39 6.4 E 7 9 4 5 1027.1 1027.0 0.0
22/06:00pm 18.8 15.5 2.6 34 7.5 E 9 13 5 7 1026.7 1026.6 0.0
22/05:30pm 20.7 16.6 2.5 30 8.6 ENE 13 17 7 9 1026.4 1026.3 0.0
22/05:00pm 21.7 17.6 2.4 28 9.1 ENE 13 20 7 11 1026.2 1026.1 0.0
22/04:30pm 22.1 17.6 2.2 27 9.5 E 15 22 8 12 1026.0 1025.9 0.0
22/04:00pm 22.4 18.8 3.0 28 9.3 ENE 11 17 6 9 1026.2 1026.1 0.0
22/03:30pm 22.6 18.7 3.2 28 9.4 E 13 20 7 11 1026.5 1026.4 0.0
22/03:00pm 23.0 19.0 3.0 27 9.7 NNE 13 22 7 12 1026.8 1026.7 0.0
22/02:30pm 22.6 19.0 3.2 28 9.4 NNE 11 19 6 10 1027.1 1027.0 0.0
22/02:00pm 22.1 18.1 2.8 28 9.2 NNE 13 28 7 15 1027.5 1027.5 0.0
22/01:30pm 21.6 17.2 2.8 29 9.0 N 15 24 8 13 1027.9 1027.9 0.0
22/01:00pm 21.8 17.5 3.0 29 9.0 NE 15 22 8 12 1028.3 1028.3 0.0
22/12:30pm 21.6 18.1 3.3 30 8.9 NNE 11 17 6 9 1028.7 1028.7 0.0
22/12:00pm 21.4 18.0 5.7 36 7.9 NE 13 20 7 11 1029.3 1029.2 0.0
22/11:30am 20.6 16.8 5.8 38 7.5 NE 15 24 8 13 1029.9 1029.8 0.0
22/11:00am 19.4 15.3 6.2 42 6.6 NE 17 26 9 14 1030.3 1030.2 0.0
22/10:30am 19.1 15.2 7.2 46 6.1 NE 17 26 9 14 1030.5 1030.4 0.0
22/10:00am 17.5 13.6 7.0 50 5.3 NE 17 24 9 13 1030.8 1030.8 0.0
22/09:30am 16.4 13.2 6.8 53 4.8 ENE 13 20 7 11 1031.0 1031.0 0.0
22/09:00am 14.9 11.7 7.0 59 3.9 ENE 13 17 7 9 1031.0 1031.0 0.0
22/08:30am 13.2 10.3 6.3 63 3.3 ENE 11 17 6 9 1030.9 1030.9 0.0
22/08:00am 11.0 8.5 6.6 74 2.1 E 9 11 5 6 1030.8 1030.8 0.0
22/07:30am 8.7 6.5 6.0 83 1.3 ESE 7 9 4 5 1030.6 1030.6 0.0
22/07:00am 6.5 4.3 5.1 91 0.6 SE 6 7 3 4 1030.3 1030.2 0.0
22/06:30am 3.8 2.3 2.9 94 0.4 CALM 0 0 0 0 1029.8 1029.7 0.0
22/06:00am 3.3 0.6 2.6 95 0.3 SE 6 7 3 4 1029.4 1029.3 0.0
22/05:30am 2.7 0.9 1.4 91 0.5 CALM 0 6 0 3 1028.9 1028.9 0.0
22/05:00am 3.3 1.4 2.6 95 0.3 S 2 6 1 3 1028.4 1028.4 0.0
22/04:30am 2.1 -0.3 0.0 86 0.8 SSE 2 7 1 4 1028.1 1028.1 0.0
22/04:00am 3.1 1.4 1.6 90 0.6 CALM 0 0 0 0 1027.9 1027.9 0.0
22/03:30am 3.3 1.6 1.7 89 0.6 CALM 0 0 0 0 1027.8 1027.8 0.0
22/03:00am 3.7 2.0 1.7 87 0.8 CALM 0 0 0 0 1027.8 1027.8 0.0
22/02:30am 3.0 -0.1 1.2 88 0.7 SW 7 9 4 5 1027.8 1027.8 0.0
22/02:00am 3.2 1.4 1.4 88 0.7 CALM 0 0 0 0 1027.8 1027.8 0.0
22/01:30am 3.7 2.0 1.9 88 0.7 CALM 0 0 0 0 1027.9 1027.9 0.0
22/01:00am 4.7 3.1 2.6 86 0.9 CALM 0 0 0 0 1028.2 1028.2 0.0
22/12:30am 4.4 2.7 1.8 83 1.0 CALM 0 0 0 0 1028.5 1028.5 0.0
22/12:00am 4.5 2.8 1.9 83 1.0 CALM 0 0 0 0 1028.4 1028.4 0.0
 
Date/Time
EST
Temp
°C
App
Temp
°C
Dew
Point
Rel
Hum
%
Delta-T
°C
Wind Press
QNH
hPa
Press
MSL
hPa
Rain
since 9 am
mm
Dir
 
Spd
km/h
Gust
km/h
Spd
kts
Gust
kts
21/11:30pm 7.0 5.6 3.6 79 1.5 CALM 0 0 0 0 1028.6 1028.6 0.0
21/11:00pm 5.9 3.2 2.5 79 1.4 SW 6 6 3 3 1028.6 1028.6 0.0
21/10:30pm 6.5 3.8 2.8 77 1.6 SW 6 7 3 4 1028.7 1028.7 0.0
21/10:00pm 7.0 4.3 2.9 75 1.7 WSW 6 6 3 3 1028.8 1028.8 0.0
21/09:30pm 7.7 5.4 3.0 72 2.0 S 4 7 2 4 1028.7 1028.7 0.0
21/09:00pm 9.0 6.4 3.0 66 2.6 SW 6 7 3 4 1028.5 1028.5 0.0
21/08:30pm 8.5 5.6 2.7 67 2.5 SSW 7 9 4 5 1028.2 1028.2 0.0
21/08:00pm 11.3 9.8 2.9 56 3.7 CALM 0 0 0 0 1027.7 1027.7 0.0
21/07:30pm 12.2 10.6 2.6 52 4.2 CALM 0 4 0 2 1027.3 1027.3 0.0
21/07:00pm 13.2 11.6 2.4 48 4.8 CALM 0 0 0 0 1026.8 1026.7 0.0
21/06:30pm 15.0 12.2 2.2 42 5.7 ESE 6 9 3 5 1026.3 1026.2 0.0
21/06:00pm 16.8 13.6 2.8 39 6.4 ESE 9 11 5 6 1026.0 1025.9 0.0
21/05:30pm 19.6 15.5 2.0 31 8.2 ESE 13 15 7 8 1025.9 1025.8 0.0
21/05:00pm 20.7 16.9 2.0 29 8.7 SE 11 19 6 10 1025.8 1025.7 0.0
21/04:30pm 21.4 18.6 2.2 28 9.1 SSW 6 11 3 6 1025.9 1025.8 0.0
21/04:00pm 21.5 18.7 2.2 28 9.1 E 6 11 3 6 1026.0 1025.9 0.0
21/03:30pm 21.6 18.2 1.8 27 9.3 SE 9 15 5 8 1026.2 1026.1 0.0
21/03:00pm 21.8 18.8 3.9 31 8.7 ENE 9 19 5 10 1026.3 1026.2 0.0
21/02:30pm 21.0 17.8 3.2 31 8.6 S 9 17 5 9 1026.6 1026.5 0.0
21/02:00pm 21.0 18.0 4.1 33 8.2 SW 9 15 5 8 1027.0 1026.9 0.0
21/01:30pm 21.1 18.4 5.5 36 7.8 NNW 9 13 5 7 1027.4 1027.4 0.0
21/01:00pm 19.8 17.1 3.5 34 7.8 NE 7 13 4 7 1027.8 1027.8 0.0
21/12:30pm 19.7 16.7 4.2 36 7.5 W 9 17 5 9 1028.3 1028.3 0.0
21/12:00pm 19.3 16.7 4.3 37 7.2 NNW 7 15 4 8 1028.7 1028.7 0.0
21/11:30am 19.3 16.7 6.1 42 6.6 WNW 9 13 5 7 1029.4 1029.3 0.0
21/11:00am 17.6 15.4 5.5 45 5.9 SSW 6 11 3 6 1029.7 1029.6 0.0
21/10:30am 17.0 15.1 6.8 51 5.1 N 6 11 3 6 1030.2 1030.1 0.0

Other Formats:

Comma delimited format used in spreadsheet applications
http://www.bom.gov.au/fwo/IDN60801/IDN60801.95709.axf

JavaScript Object Notation format (JSON) in row-major order
http://www.bom.gov.au/fwo/IDN60801/IDN60801.95709.json